Time;durP1;ratioP1;P1;durP2;ratioP2;P2;SDS_P1;SDS_P2;PMS_P1;PMS_P2;Temp;Humidity;BMP_temperature;BMP_pressure;BME280_temperature;BME280_humidity;BME280_pressure;Samples;Min_cycle;Max_cycle;Signal;HPM_P1;HPM_P2
2021/08/09 00:00:20;;;;;;;1.55;0.60;;;24.90;53.00;;;;;;5047701;28;20025;-60
2021/08/09 00:02:46;;;;;;;1.20;0.70;;;24.90;53.00;;;;;;5048757;28;20025;-61
2021/08/09 00:05:11;;;;;;;0.98;0.60;;;24.90;53.00;;;;;;5044068;28;20065;-65
2021/08/09 00:07:37;;;;;;;1.38;0.60;;;24.90;53.00;;;;;;5052071;28;20110;-62
2021/08/09 00:10:03;;;;;;;0.93;0.60;;;24.90;53.00;;;;;;5048836;28;20036;-60
2021/08/09 00:12:28;;;;;;;1.35;0.60;;;24.90;53.00;;;;;;5048134;28;20048;-60
2021/08/09 00:14:54;;;;;;;1.23;0.60;;;24.80;53.00;;;;;;5066709;28;20131;-61
2021/08/09 00:17:20;;;;;;;0.57;0.50;;;24.80;53.00;;;;;;5047613;28;20097;-65
2021/08/09 00:19:45;;;;;;;0.98;0.50;;;24.80;53.00;;;;;;5039586;28;20454;-62
2021/08/09 00:22:11;;;;;;;1.48;0.70;;;24.80;53.00;;;;;;5036208;28;20032;-62
2021/08/09 00:24:37;;;;;;;1.23;0.70;;;24.80;53.00;;;;;;5048999;28;20335;-60
2021/08/09 00:27:03;;;;;;;1.42;0.65;;;24.80;53.00;;;;;;5048297;28;20105;-63
2021/08/09 00:29:28;;;;;;;1.00;0.50;;;24.80;53.10;;;;;;5046360;28;20033;-61
2021/08/09 00:31:54;;;;;;;1.08;0.70;;;24.80;53.00;;;;;;5028563;28;20041;-62
2021/08/09 00:34:19;;;;;;;0.70;0.43;;;24.80;53.10;;;;;;5050266;28;20108;-61
2021/08/09 00:36:46;;;;;;;0.93;0.60;;;24.80;53.10;;;;;;5054536;28;20247;-62
2021/08/09 00:39:11;;;;;;;0.80;0.50;;;24.80;53.10;;;;;;5051135;28;20021;-63
2021/08/09 00:41:37;;;;;;;0.80;0.50;;;24.80;53.10;;;;;;5047160;28;20040;-65
2021/08/09 00:44:03;;;;;;;1.15;0.65;;;24.70;53.10;;;;;;5051212;28;20143;-64
2021/08/09 00:46:29;;;;;;;0.85;0.68;;;24.70;53.20;;;;;;5053142;28;20514;-65
2021/08/09 00:48:55;;;;;;;0.90;0.60;;;24.70;53.20;;;;;;5054370;28;20025;-66
2021/08/09 00:51:21;;;;;;;0.88;0.57;;;24.70;53.20;;;;;;5042230;28;20021;-62
2021/08/09 00:53:47;;;;;;;0.75;0.52;;;24.70;53.20;;;;;;5051590;28;20032;-61
2021/08/09 00:56:13;;;;;;;0.88;0.65;;;24.70;53.20;;;;;;5054996;28;20036;-61
2021/08/09 00:58:39;;;;;;;0.85;0.60;;;24.70;53.20;;;;;;5046922;28;20029;-62
2021/08/09 01:01:05;;;;;;;0.63;0.50;;;24.60;53.20;;;;;;5047040;28;20461;-63
2021/08/09 01:03:31;;;;;;;0.73;0.57;;;24.60;53.70;;;;;;5045560;28;20035;-63
2021/08/09 01:05:57;;;;;;;1.77;0.60;;;24.60;53.30;;;;;;5045841;28;20021;-63
2021/08/09 01:08:38;;;;;;;1.23;0.60;;;24.60;53.70;;;;;;5043430;28;20040;-61
2021/08/09 01:11:22;;;;;;;0.57;0.50;;;24.60;53.30;;;;;;5067801;28;20312;-64
2021/08/09 01:13:52;;;;;;;1.50;0.60;;;24.60;53.30;;;;;;5031695;28;20029;-63
2021/08/09 01:16:22;;;;;;;0.80;0.60;;;24.60;53.30;;;;;;5048578;28;20454;-61
2021/08/09 01:18:50;;;;;;;1.38;0.60;;;24.60;53.30;;;;;;5045689;28;20377;-65
2021/08/09 01:21:18;;;;;;;0.98;0.60;;;24.60;53.30;;;;;;5046997;28;20028;-63
2021/08/09 01:24:06;;;;;;;0.82;0.63;;;24.60;53.30;;;;;;5046843;28;20076;-62
2021/08/09 01:26:40;;;;;;;0.93;0.70;;;24.60;53.30;;;;;;5049997;28;20095;-65
2021/08/09 01:29:10;;;;;;;1.38;0.60;;;24.50;53.30;;;;;;5048253;28;20040;-63
2021/08/09 01:31:42;;;;;;;1.30;0.70;;;24.60;53.90;;;;;;5040673;28;20052;-61
2021/08/09 01:34:11;;;;;;;1.05;0.80;;;24.60;53.30;;;;;;5045839;28;20104;-61
2021/08/09 01:36:40;;;;;;;1.75;0.80;;;24.50;53.30;;;;;;5046633;28;20270;-61
2021/08/09 01:39:06;;;;;;;0.93;0.60;;;24.50;53.30;;;;;;5050867;28;20035;-65
2021/08/09 01:41:33;;;;;;;0.80;0.65;;;24.50;53.30;;;;;;5045520;28;20191;-62
2021/08/09 01:43:59;;;;;;;0.75;0.55;;;24.50;53.40;;;;;;5046977;28;20028;-62
2021/08/09 01:46:25;;;;;;;1.25;0.60;;;24.50;53.30;;;;;;5047168;28;20051;-65
2021/08/09 01:48:52;;;;;;;0.55;0.55;;;24.50;53.40;;;;;;5048712;28;20124;-61
2021/08/09 01:51:17;;;;;;;1.48;0.60;;;24.40;53.30;;;;;;5059380;28;20040;-65
2021/08/09 01:53:43;;;;;;;0.90;0.60;;;24.40;53.30;;;;;;5053238;28;20379;-61
2021/08/09 01:56:11;;;;;;;1.08;0.63;;;24.50;53.40;;;;;;5054479;28;20483;-65
2021/08/09 01:58:37;;;;;;;0.93;0.60;;;24.40;53.40;;;;;;5046105;28;20036;-64
2021/08/09 02:01:05;;;;;;;1.05;0.60;;;24.40;53.40;;;;;;5045475;28;20025;-62
2021/08/09 02:03:31;;;;;;;1.20;0.50;;;24.40;53.40;;;;;;5045862;28;20098;-61
2021/08/09 02:05:56;;;;;;;0.50;0.50;;;24.40;53.40;;;;;;5042229;28;20022;-62
2021/08/09 02:08:22;;;;;;;1.15;0.80;;;24.40;53.40;;;;;;5043298;28;20107;-62
2021/08/09 02:10:55;;;;;;;0.50;0.50;;;24.40;53.40;;;;;;5046658;28;20049;-66
2021/08/09 02:13:31;;;;;;;1.17;0.68;;;24.40;53.40;;;;;;5044902;28;20033;-62
2021/08/09 02:16:18;;;;;;;1.42;0.60;;;24.40;53.40;;;;;;5046125;28;20125;-62
2021/08/09 02:18:53;;;;;;;0.82;0.60;;;24.30;53.40;;;;;;5044237;28;20507;-62
2021/08/09 02:21:24;;;;;;;1.35;0.80;;;24.30;53.40;;;;;;5026528;28;20055;-61
2021/08/09 02:23:57;;;;;;;1.13;0.60;;;24.30;53.40;;;;;;5045546;28;20025;-62
2021/08/09 02:26:29;;;;;;;1.30;0.60;;;24.30;53.50;;;;;;5046983;28;20279;-65
2021/08/09 02:29:07;;;;;;;0.70;0.60;;;24.30;53.50;;;;;;5051883;28;20016;-65
2021/08/09 02:31:36;;;;;;;1.17;0.60;;;24.30;53.50;;;;;;5038686;28;20556;-64
2021/08/09 02:34:04;;;;;;;1.45;0.70;;;24.30;53.50;;;;;;5045468;28;20021;-65
2021/08/09 02:36:30;;;;;;;0.98;0.80;;;24.30;53.50;;;;;;5058721;28;20040;-61
2021/08/09 02:38:57;;;;;;;1.25;0.50;;;24.30;53.50;;;;;;5064149;28;20439;-60
2021/08/09 02:41:24;;;;;;;0.73;0.50;;;24.30;53.50;;;;;;5051943;28;20032;-62
2021/08/09 02:43:49;;;;;;;0.50;0.50;;;24.30;53.50;;;;;;5041199;28;20063;-62
2021/08/09 02:46:16;;;;;;;1.10;0.60;;;24.30;53.50;;;;;;5045627;28;20044;-64
2021/08/09 02:48:42;;;;;;;0.73;0.60;;;24.30;53.50;;;;;;5036115;28;20481;-62
2021/08/09 02:51:11;;;;;;;0.70;0.60;;;24.30;53.50;;;;;;5052996;28;20025;-61
2021/08/09 02:53:39;;;;;;;0.60;0.50;;;24.30;53.50;;;;;;5035397;28;20178;-60
2021/08/09 02:56:06;;;;;;;0.80;0.60;;;24.20;53.50;;;;;;5045456;28;20024;-62
2021/08/09 02:58:31;;;;;;;0.63;0.50;;;24.20;53.50;;;;;;5025382;28;20500;-61
2021/08/09 03:00:58;;;;;;;1.30;0.60;;;24.20;53.50;;;;;;5039081;28;20143;-62
2021/08/09 03:03:28;;;;;;;0.80;0.52;;;24.20;53.50;;;;;;5059799;28;20363;-62
2021/08/09 03:05:57;;;;;;;1.00;0.60;;;24.20;53.60;;;;;;5054768;28;20135;-63
2021/08/09 03:08:24;;;;;;;0.95;0.70;;;24.20;53.60;;;;;;5052745;28;20130;-65
2021/08/09 03:10:50;;;;;;;0.70;0.55;;;24.20;53.60;;;;;;5048115;28;20051;-61
2021/08/09 03:13:23;;;;;;;1.13;0.55;;;24.20;53.60;;;;;;5065197;28;20029;-62
2021/08/09 03:15:50;;;;;;;1.00;0.60;;;24.20;53.60;;;;;;5047663;28;20021;-62
2021/08/09 03:18:16;;;;;;;0.82;0.65;;;24.20;53.60;;;;;;5045188;28;20477;-62
2021/08/09 03:20:42;;;;;;;1.05;0.57;;;24.10;54.10;;;;;;5041994;28;20087;-64
2021/08/09 03:23:07;;;;;;;0.50;0.50;;;24.10;53.60;;;;;;5051510;28;20086;-62
2021/08/09 03:25:33;;;;;;;0.95;0.63;;;24.10;53.60;;;;;;5057345;28;20461;-63
2021/08/09 03:27:59;;;;;;;1.23;0.50;;;24.10;53.60;;;;;;5059339;28;20430;-62
2021/08/09 03:30:26;;;;;;;0.75;0.55;;;24.10;53.60;;;;;;5042781;28;24686;-62
2021/08/09 03:32:53;;;;;;;1.10;0.60;;;24.10;53.70;;;;;;5044754;28;20062;-61
2021/08/09 03:35:20;;;;;;;1.00;0.50;;;24.10;53.70;;;;;;5063141;28;20033;-65
2021/08/09 03:37:45;;;;;;;0.60;0.60;;;24.10;53.70;;;;;;5048697;28;20057;-62
2021/08/09 03:40:11;;;;;;;0.65;0.50;;;24.10;53.70;;;;;;5049624;28;20400;-60
2021/08/09 03:42:37;;;;;;;0.93;0.60;;;24.10;53.70;;;;;;5056749;28;20119;-63
2021/08/09 03:45:04;;;;;;;2.08;0.60;;;24.10;53.70;;;;;;5050910;28;20096;-62
2021/08/09 03:47:29;;;;;;;0.60;0.50;;;24.10;53.70;;;;;;5047405;28;20049;-62
2021/08/09 03:49:55;;;;;;;0.50;0.50;;;24.10;53.70;;;;;;5049232;28;20047;-62
2021/08/09 03:52:20;;;;;;;1.02;0.60;;;24.00;53.60;;;;;;5045247;28;20096;-63
2021/08/09 03:54:46;;;;;;;0.45;0.45;;;24.10;53.70;;;;;;5053516;28;20056;-60
2021/08/09 03:57:12;;;;;;;0.80;0.60;;;24.00;53.70;;;;;;5050508;28;20063;-65
2021/08/09 03:59:37;;;;;;;1.05;0.60;;;24.00;53.70;;;;;;5054757;28;20576;-64
2021/08/09 04:02:03;;;;;;;0.80;0.55;;;24.00;53.70;;;;;;5047571;28;20107;-65
2021/08/09 04:04:28;;;;;;;0.50;0.50;;;24.00;53.70;;;;;;5050686;28;20029;-63
2021/08/09 04:06:54;;;;;;;1.05;0.68;;;24.00;53.70;;;;;;5047789;28;20037;-64
2021/08/09 04:09:19;;;;;;;1.10;0.60;;;24.00;53.70;;;;;;5049266;28;20447;-62
2021/08/09 04:11:45;;;;;;;0.50;0.50;;;24.00;53.70;;;;;;5048492;28;20020;-63
2021/08/09 04:14:11;;;;;;;0.50;0.50;;;24.00;53.70;;;;;;5038747;28;20034;-62
2021/08/09 04:16:36;;;;;;;0.50;0.50;;;24.00;53.70;;;;;;5028195;28;20045;-63
2021/08/09 04:19:02;;;;;;;0.63;0.50;;;24.00;53.70;;;;;;5053228;28;20048;-61
2021/08/09 04:21:28;;;;;;;0.55;0.55;;;24.00;53.70;;;;;;5048891;28;20212;-63
2021/08/09 04:23:54;;;;;;;0.50;0.50;;;23.90;53.70;;;;;;5059706;28;20032;-65
2021/08/09 04:26:20;;;;;;;0.68;0.60;;;24.00;53.70;;;;;;5059271;28;20053;-62
2021/08/09 04:28:46;;;;;;;0.40;0.40;;;23.90;53.70;;;;;;5047688;28;20033;-62
2021/08/09 04:31:11;;;;;;;1.00;0.50;;;23.90;53.70;;;;;;5055659;28;20049;-64
2021/08/09 04:33:45;;;;;;;0.40;0.40;;;23.90;53.70;;;;;;5047838;28;20533;-62
2021/08/09 04:36:10;;;;;;;0.75;0.43;;;23.90;53.70;;;;;;5047573;28;20033;-61
2021/08/09 04:38:36;;;;;;;0.88;0.50;;;23.90;53.70;;;;;;5047128;28;20082;-63
2021/08/09 04:41:07;;;;;;;0.40;0.40;;;23.90;53.70;;;;;;5058537;28;20066;-61
2021/08/09 04:43:34;;;;;;;1.10;0.60;;;23.90;53.80;;;;;;5047067;28;20084;-61
2021/08/09 04:46:00;;;;;;;0.73;0.60;;;23.90;54.30;;;;;;5055010;28;20029;-64
2021/08/09 04:48:26;;;;;;;0.75;0.60;;;23.90;54.30;;;;;;5046537;28;20115;-63
2021/08/09 04:50:52;;;;;;;0.50;0.50;;;23.90;53.80;;;;;;5045551;28;20219;-63
2021/08/09 04:53:17;;;;;;;0.60;0.50;;;23.90;53.80;;;;;;5033091;28;20526;-62
2021/08/09 04:55:43;;;;;;;0.40;0.40;;;23.90;53.80;;;;;;5055632;28;20021;-65
2021/08/09 04:58:08;;;;;;;0.85;0.65;;;23.90;53.80;;;;;;5057799;28;20036;-62
2021/08/09 05:00:34;;;;;;;0.65;0.50;;;23.90;53.80;;;;;;5049949;28;20033;-60
2021/08/09 05:02:59;;;;;;;1.05;0.80;;;23.90;53.80;;;;;;5050646;28;20033;-62
2021/08/09 05:05:25;;;;;;;0.95;0.60;;;23.90;53.80;;;;;;5043202;28;20253;-65
2021/08/09 05:07:58;;;;;;;1.13;0.50;;;23.90;53.80;;;;;;5046791;28;20334;-61
2021/08/09 05:10:25;;;;;;;0.85;0.60;;;23.90;53.80;;;;;;5052190;28;20429;-62
2021/08/09 05:12:51;;;;;;;0.90;0.60;;;23.80;53.70;;;;;;5035377;28;20124;-64
2021/08/09 05:15:17;;;;;;;0.95;0.50;;;23.90;53.80;;;;;;5046378;28;20112;-60
2021/08/09 05:17:42;;;;;;;0.80;0.50;;;23.90;53.80;;;;;;5045858;28;20051;-64
2021/08/09 05:20:09;;;;;;;1.08;0.70;;;23.80;53.80;;;;;;5046100;28;20032;-60
2021/08/09 05:22:35;;;;;;;0.85;0.60;;;23.80;53.80;;;;;;5045938;28;20033;-61
2021/08/09 05:25:04;;;;;;;0.57;0.55;;;23.80;53.80;;;;;;5057015;28;20040;-61
2021/08/09 05:27:30;;;;;;;0.60;0.50;;;23.80;53.80;;;;;;5055701;28;20036;-62
2021/08/09 05:29:56;;;;;;;0.70;0.60;;;23.80;53.80;;;;;;5045637;28;20035;-65
2021/08/09 05:32:22;;;;;;;0.63;0.50;;;23.80;53.80;;;;;;5041097;28;20341;-61
2021/08/09 05:34:47;;;;;;;1.55;0.55;;;23.80;53.80;;;;;;5040078;28;20028;-65
2021/08/09 05:37:13;;;;;;;0.50;0.50;;;23.80;53.80;;;;;;5032867;28;20136;-61
2021/08/09 05:39:40;;;;;;;0.70;0.50;;;23.80;53.80;;;;;;5032343;28;20393;-60
2021/08/09 05:42:05;;;;;;;0.70;0.50;;;23.80;53.80;;;;;;5032669;28;20025;-62
2021/08/09 05:44:31;;;;;;;0.60;0.60;;;23.80;53.80;;;;;;5039346;28;20078;-64
2021/08/09 05:46:56;;;;;;;0.50;0.47;;;23.80;53.80;;;;;;5036103;28;20769;-62
2021/08/09 05:49:22;;;;;;;0.60;0.50;;;23.70;53.70;;;;;;5034174;28;20061;-60
2021/08/09 05:51:47;;;;;;;0.90;0.50;;;23.80;53.80;;;;;;5038272;28;20029;-60
2021/08/09 05:54:13;;;;;;;1.00;0.60;;;23.70;53.70;;;;;;5044352;28;20064;-63
2021/08/09 05:56:39;;;;;;;0.80;0.60;;;23.80;53.80;;;;;;5051857;28;20017;-63
2021/08/09 05:59:04;;;;;;;0.60;0.60;;;23.70;53.70;;;;;;5047883;28;20337;-61
2021/08/09 06:01:30;;;;;;;0.50;0.50;;;23.70;53.70;;;;;;5056400;28;20496;-61
2021/08/09 06:03:56;;;;;;;0.98;0.57;;;23.70;53.70;;;;;;5046220;28;20029;-64
2021/08/09 06:06:22;;;;;;;0.75;0.50;;;23.70;53.70;;;;;;5045647;28;20464;-62
2021/08/09 06:08:47;;;;;;;0.68;0.60;;;23.70;53.70;;;;;;5045717;28;20059;-61
2021/08/09 06:11:13;;;;;;;0.50;0.50;;;23.70;53.70;;;;;;5046028;28;20029;-61
2021/08/09 06:13:39;;;;;;;1.23;0.70;;;23.70;53.70;;;;;;5045542;28;20037;-60
2021/08/09 06:16:05;;;;;;;1.42;0.70;;;23.70;53.70;;;;;;5045978;28;20033;-63
2021/08/09 06:18:34;;;;;;;0.50;0.50;;;23.70;53.70;;;;;;5050466;28;20036;-63
2021/08/09 06:21:01;;;;;;;0.65;0.50;;;23.70;53.70;;;;;;5035926;28;20036;-63
2021/08/09 06:23:27;;;;;;;0.60;0.50;;;23.70;53.70;;;;;;5049788;28;20051;-59
2021/08/09 06:25:54;;;;;;;0.60;0.50;;;23.70;53.70;;;;;;5051572;28;20025;-63
2021/08/09 06:28:20;;;;;;;1.40;0.70;;;23.70;53.70;;;;;;5045411;28;20515;-58
2021/08/09 06:30:46;;;;;;;0.65;0.60;;;23.70;53.70;;;;;;5040307;28;20041;-61
2021/08/09 06:33:12;;;;;;;0.40;0.40;;;23.70;53.70;;;;;;5045088;28;20361;-60
2021/08/09 06:35:37;;;;;;;0.82;0.60;;;23.60;53.70;;;;;;5053152;28;20071;-62
2021/08/09 06:38:09;;;;;;;0.70;0.57;;;23.60;53.70;;;;;;5048297;28;20481;-60
2021/08/09 06:40:41;;;;;;;0.50;0.50;;;23.70;53.70;;;;;;5024947;28;20037;-60
2021/08/09 06:43:08;;;;;;;0.95;0.60;;;23.70;53.80;;;;;;5043641;28;20054;-63
2021/08/09 06:45:34;;;;;;;0.60;0.52;;;23.70;53.70;;;;;;5046947;28;20254;-60
2021/08/09 06:47:59;;;;;;;0.98;0.60;;;23.70;53.70;;;;;;5045942;28;20136;-61
2021/08/09 06:50:25;;;;;;;1.05;0.63;;;23.60;54.20;;;;;;5044014;28;20029;-62
2021/08/09 06:52:51;;;;;;;0.50;0.50;;;23.70;53.80;;;;;;5041186;28;20115;-63
2021/08/09 06:55:16;;;;;;;1.35;0.60;;;23.60;53.70;;;;;;5047212;28;20137;-60
2021/08/09 06:57:42;;;;;;;0.50;0.50;;;23.60;53.70;;;;;;5046417;28;20170;-61
2021/08/09 07:00:08;;;;;;;0.55;0.50;;;23.60;53.80;;;;;;5046445;28;20047;-62
2021/08/09 07:02:34;;;;;;;0.68;0.55;;;23.60;53.80;;;;;;5051309;28;20025;-61
2021/08/09 07:05:00;;;;;;;0.43;0.43;;;23.60;53.80;;;;;;5065297;28;20483;-62
2021/08/09 07:07:25;;;;;;;0.43;0.40;;;23.60;53.80;;;;;;5052870;28;20029;-61
2021/08/09 07:09:51;;;;;;;0.40;0.40;;;23.60;54.30;;;;;;5046327;28;20040;-60
2021/08/09 07:12:17;;;;;;;0.57;0.50;;;23.60;53.80;;;;;;5052835;28;20059;-60
2021/08/09 07:14:43;;;;;;;0.55;0.50;;;23.60;53.80;;;;;;5049395;28;20103;-61
2021/08/09 07:17:09;;;;;;;1.05;0.55;;;23.60;53.80;;;;;;5050897;28;20359;-59
2021/08/09 07:19:39;;;;;;;0.50;0.50;;;23.60;53.80;;;;;;5054029;28;20355;-61
2021/08/09 07:22:05;;;;;;;1.33;0.52;;;23.60;53.80;;;;;;5045265;28;20025;-62
2021/08/09 07:24:30;;;;;;;0.88;0.60;;;23.60;53.90;;;;;;5056568;28;20040;-61
2021/08/09 07:26:56;;;;;;;0.70;0.50;;;23.60;53.80;;;;;;5046669;28;20464;-63
2021/08/09 07:29:22;;;;;;;1.10;0.80;;;23.60;53.80;;;;;;5052911;28;20036;-63
2021/08/09 07:31:47;;;;;;;1.77;1.23;;;23.60;53.50;;;;;;5048346;28;20044;-60
2021/08/09 07:34:13;;;;;;;1.98;1.40;;;23.60;52.70;;;;;;5050750;28;21476;-59
2021/08/09 07:36:40;;;;;;;2.30;1.50;;;23.40;52.10;;;;;;5064916;28;20032;-61
2021/08/09 07:39:06;;;;;;;2.33;1.30;;;23.30;52.00;;;;;;5048522;28;20141;-62
2021/08/09 07:41:31;;;;;;;2.38;1.40;;;23.20;52.40;;;;;;5046861;28;20119;-60
2021/08/09 07:43:57;;;;;;;3.05;1.30;;;23.20;52.50;;;;;;5044349;28;20083;-59
2021/08/09 07:46:27;;;;;;;2.42;1.40;;;23.20;52.50;;;;;;5048585;28;20067;-63
2021/08/09 07:48:53;;;;;;;2.85;1.52;;;23.20;52.70;;;;;;5054745;28;20028;-61
2021/08/09 07:51:19;;;;;;;3.17;2.00;;;23.10;52.70;;;;;;5048313;28;20044;-60
2021/08/09 07:53:45;;;;;;;3.47;2.40;;;23.00;52.60;;;;;;5038494;28;20033;-60
2021/08/09 07:56:10;;;;;;;3.53;2.45;;;22.80;53.10;;;;;;5044600;28;20029;-60
2021/08/09 07:58:36;;;;;;;3.45;2.15;;;22.80;53.20;;;;;;5048345;28;20029;-61
2021/08/09 08:01:01;;;;;;;2.95;1.83;;;22.90;53.40;;;;;;5047979;28;20108;-62
2021/08/09 08:03:27;;;;;;;3.35;1.80;;;22.90;53.80;;;;;;5047988;28;20033;-60
2021/08/09 08:05:53;;;;;;;2.58;1.60;;;22.80;52.30;;;;;;5044339;28;20029;-59
2021/08/09 08:08:18;;;;;;;2.63;1.50;;;22.80;52.30;;;;;;5047569;28;20075;-61
2021/08/09 08:10:44;;;;;;;2.40;1.40;;;22.70;51.50;;;;;;5047151;28;20037;-60
2021/08/09 08:13:09;;;;;;;1.70;1.13;;;22.70;52.20;;;;;;5041967;28;20293;-59
2021/08/09 08:15:35;;;;;;;3.22;1.45;;;22.70;52.70;;;;;;5049313;28;20021;-59
2021/08/09 08:18:01;;;;;;;2.10;1.10;;;22.70;52.80;;;;;;5046907;28;20531;-60
2021/08/09 08:20:27;;;;;;;2.22;1.20;;;22.70;52.80;;;;;;5033631;28;20017;-60
2021/08/09 08:22:54;;;;;;;1.73;0.98;;;22.80;53.00;;;;;;5041229;28;20128;-60
2021/08/09 08:25:20;;;;;;;1.95;1.20;;;22.80;53.00;;;;;;5048616;28;20506;-61
2021/08/09 08:27:45;;;;;;;1.95;1.20;;;22.90;52.90;;;;;;5046021;28;20036;-60
2021/08/09 08:30:12;;;;;;;1.50;1.00;;;22.80;52.80;;;;;;5045887;28;20026;-59
2021/08/09 08:32:38;;;;;;;1.75;1.00;;;22.80;53.30;;;;;;5035029;28;20116;-60
2021/08/09 08:35:04;;;;;;;1.60;1.10;;;22.80;53.30;;;;;;5047991;28;20128;-59
2021/08/09 08:37:29;;;;;;;1.35;0.90;;;22.90;53.10;;;;;;5047645;28;20112;-60
2021/08/09 08:39:55;;;;;;;1.80;0.90;;;22.90;52.10;;;;;;5048560;28;20108;-60
2021/08/09 08:42:21;;;;;;;1.95;0.90;;;22.80;51.90;;;;;;5046429;28;20439;-60
2021/08/09 08:44:46;;;;;;;1.85;1.05;;;22.80;50.80;;;;;;5045747;28;20053;-62
2021/08/09 08:47:15;;;;;;;1.35;0.80;;;22.80;51.40;;;;;;5043903;28;20056;-59
2021/08/09 08:49:43;;;;;;;1.95;1.05;;;22.80;51.40;;;;;;5047109;28;20578;-62
2021/08/09 08:52:08;;;;;;;2.05;0.93;;;22.80;48.60;;;;;;5039584;28;20141;-59
2021/08/09 08:54:34;;;;;;;1.30;0.80;;;22.80;48.50;;;;;;5046544;28;20021;-62
2021/08/09 08:57:03;;;;;;;1.67;0.90;;;22.80;48.70;;;;;;5046355;28;20116;-62
2021/08/09 08:59:30;;;;;;;1.10;0.70;;;22.80;47.60;;;;;;5045453;28;20100;-61
2021/08/09 09:01:55;;;;;;;2.03;0.90;;;22.80;48.30;;;;;;5047329;28;20029;-62
2021/08/09 09:04:27;;;;;;;1.70;0.80;;;22.80;48.80;;;;;;5045840;28;20027;-60
2021/08/09 09:06:57;;;;;;;1.67;0.85;;;22.80;48.00;;;;;;5036642;28;20105;-60
2021/08/09 09:09:23;;;;;;;2.13;1.00;;;22.80;48.20;;;;;;5039900;28;20061;-62
2021/08/09 09:11:50;;;;;;;2.42;1.05;;;22.70;48.30;;;;;;5045572;28;20106;-59
2021/08/09 09:14:31;;;;;;;1.85;1.02;;;22.70;46.00;;;;;;5045375;28;20040;-60
2021/08/09 09:16:57;;;;;;;1.52;0.80;;;22.70;46.40;;;;;;5048119;28;20128;-61
2021/08/09 09:19:47;;;;;;;0.95;0.85;;;22.70;46.60;;;;;;5047516;28;20369;-59
2021/08/09 09:22:18;;;;;;;;;;;22.70;46.70;;;;;;5051108;28;20052;-60
2021/08/09 09:24:49;;;;;;;2.13;1.02;;;22.70;46.90;;;;;;5037742;28;20327;-62
2021/08/09 09:27:29;;;;;;;0.63;0.60;;;22.70;47.80;;;;;;5042885;28;20056;-60
2021/08/09 09:29:55;;;;;;;1.50;0.80;;;22.80;48.20;;;;;;5039847;28;20497;-60
2021/08/09 09:32:23;;;;;;;0.80;0.70;;;22.90;48.60;;;;;;5045726;28;20143;-61
2021/08/09 09:34:54;;;;;;;0.93;0.60;;;22.90;48.70;;;;;;5044076;28;20013;-60
2021/08/09 09:37:29;;;;;;;1.10;0.60;;;22.90;48.80;;;;;;5046490;28;20036;-59
2021/08/09 09:40:09;;;;;;;0.93;0.60;;;23.00;48.90;;;;;;5041692;28;20024;-61
2021/08/09 09:42:39;;;;;;;1.17;0.70;;;23.00;49.00;;;;;;5040473;28;20056;-61
2021/08/09 09:45:26;;;;;;;1.35;0.70;;;23.10;49.20;;;;;;5024263;28;20060;-61
2021/08/09 09:48:29;;;;;;;0.77;0.57;;;23.10;49.10;;;;;;5028781;28;20523;-59
2021/08/09 09:51:11;;;;;;;1.27;0.70;;;23.10;49.30;;;;;;5041228;28;20037;-60
2021/08/09 09:53:37;;;;;;;1.58;0.88;;;23.20;49.40;;;;;;5034194;28;20078;-60
2021/08/09 09:56:04;;;;;;;0.90;0.70;;;23.30;49.40;;;;;;5032185;28;20131;-59
2021/08/09 09:58:30;;;;;;;1.33;0.63;;;23.30;49.50;;;;;;5040224;28;20038;-61
2021/08/09 10:01:00;;;;;;;1.83;0.80;;;23.30;49.50;;;;;;5035499;28;20457;-60
2021/08/09 10:03:25;;;;;;;;;;;23.30;49.50;;;;;;5034281;28;20033;-62
2021/08/09 10:05:52;;;;;;;1.75;0.70;;;23.40;49.60;;;;;;5043841;28;20310;-58
2021/08/09 10:08:19;;;;;;;0.93;0.70;;;23.40;49.60;;;;;;5042866;28;20274;-59
2021/08/09 10:10:48;;;;;;;1.90;0.80;;;23.40;49.60;;;;;;5046792;28;20135;-61
2021/08/09 10:13:17;;;;;;;1.42;0.70;;;23.50;49.70;;;;;;5043988;28;20394;-59
2021/08/09 10:15:42;;;;;;;1.37;0.80;;;23.50;49.70;;;;;;5043062;28;20089;-60
2021/08/09 10:18:08;;;;;;;0.85;0.68;;;23.60;49.80;;;;;;5042179;28;20028;-60
2021/08/09 10:20:35;;;;;;;1.08;0.70;;;23.60;49.80;;;;;;5042087;28;20025;-60
2021/08/09 10:23:02;;;;;;;1.35;0.80;;;23.60;49.80;;;;;;5043748;28;20037;-60
2021/08/09 10:25:54;;;;;;;1.30;0.75;;;23.70;49.80;;;;;;5043247;28;20515;-61
2021/08/09 10:28:20;;;;;;;0.90;0.68;;;23.70;49.80;;;;;;5038349;28;20136;-59
2021/08/09 10:30:45;;;;;;;0.90;0.70;;;23.70;49.80;;;;;;5039655;28;20128;-60
2021/08/09 10:33:11;;;;;;;0.82;0.70;;;23.70;49.80;;;;;;5050284;28;20056;-60
2021/08/09 10:35:40;;;;;;;1.65;0.90;;;23.80;49.90;;;;;;5042330;28;20090;-61
2021/08/09 10:38:26;;;;;;;1.45;0.88;;;23.80;49.80;;;;;;5040655;28;20025;-59
2021/08/09 10:41:00;;;;;;;0.70;0.70;;;23.80;49.80;;;;;;5043013;28;20423;-61
2021/08/09 10:43:27;;;;;;;1.50;0.80;;;23.90;49.80;;;;;;5027065;28;20033;-61
2021/08/09 10:45:52;;;;;;;1.17;0.80;;;23.90;49.80;;;;;;5030721;28;20084;-59
2021/08/09 10:48:53;;;;;;;0.90;0.70;;;23.90;49.80;;;;;;5043108;28;20056;-59
2021/08/09 10:51:51;;;;;;;1.20;0.70;;;23.90;49.80;;;;;;4973113;28;20026;-58
2021/08/09 10:54:30;;;;;;;1.15;0.70;;;23.90;49.90;;;;;;5032245;28;20443;-61
2021/08/09 10:56:57;;;;;;;1.55;0.80;;;23.90;49.90;;;;;;5048123;28;20024;-59
2021/08/09 10:59:44;;;;;;;1.48;0.75;;;23.90;50.00;;;;;;5040990;28;20489;-58
2021/08/09 11:02:24;;;;;;;1.38;0.70;;;23.90;50.00;;;;;;5032902;28;20048;-59
2021/08/09 11:05:14;;;;;;;1.50;0.80;;;23.90;50.00;;;;;;5036301;28;20296;-57
2021/08/09 11:07:41;;;;;;;0.98;0.70;;;24.00;50.10;;;;;;5041649;28;20103;-60
2021/08/09 11:10:07;;;;;;;1.08;0.70;;;24.00;50.20;;;;;;5055140;28;20574;-59
2021/08/09 11:12:53;;;;;;;1.35;0.70;;;24.00;50.20;;;;;;5042665;28;20060;-57
2021/08/09 11:15:19;;;;;;;1.20;0.80;;;23.90;50.20;;;;;;5035032;28;20056;-58
2021/08/09 11:17:49;;;;;;;0.70;0.70;;;24.00;50.20;;;;;;5054513;28;20029;-56
2021/08/09 11:20:25;;;;;;;1.13;0.70;;;24.00;50.30;;;;;;5043053;28;20083;-54
2021/08/09 11:23:09;;;;;;;0.88;0.57;;;23.90;50.20;;;;;;5042218;28;20064;-60
2021/08/09 11:25:46;;;;;;;0.90;0.70;;;24.00;50.40;;;;;;5042276;28;20060;-59
2021/08/09 11:28:17;;;;;;;1.30;0.73;;;24.00;50.40;;;;;;5025857;28;20033;-57
2021/08/09 11:30:47;;;;;;;1.08;0.73;;;24.00;50.40;;;;;;5037762;28;20056;-59
2021/08/09 11:33:34;;;;;;;1.05;0.70;;;24.00;50.40;;;;;;5042037;28;20032;-60
2021/08/09 11:36:13;;;;;;;1.42;0.80;;;24.00;50.50;;;;;;5043297;28;20033;-59
2021/08/09 11:38:48;;;;;;;;;;;24.00;50.50;;;;;;5047772;28;20033;-58
2021/08/09 11:41:16;;;;;;;1.33;0.70;;;24.00;50.60;;;;;;5043250;28;19916;-59
2021/08/09 11:43:43;;;;;;;1.27;0.70;;;24.00;51.10;;;;;;5039272;28;20132;-58
2021/08/09 11:46:14;;;;;;;2.17;0.70;;;24.00;50.60;;;;;;5039893;28;20086;-58
2021/08/09 11:48:42;;;;;;;1.10;0.60;;;23.90;50.60;;;;;;5054027;28;20052;-60
2021/08/09 11:51:16;;;;;;;1.02;0.60;;;24.00;50.70;;;;;;5044133;28;20029;-59
2021/08/09 11:53:46;;;;;;;1.52;0.70;;;24.00;50.80;;;;;;5036480;28;20049;-59
2021/08/09 11:56:34;;;;;;;1.17;0.65;;;24.00;50.80;;;;;;5037944;28;20224;-59
2021/08/09 11:59:13;;;;;;;0.63;0.50;;;24.00;50.80;;;;;;5042803;28;20120;-59
2021/08/09 12:01:40;;;;;;;1.30;0.70;;;24.00;50.80;;;;;;5042853;28;20029;-58
2021/08/09 12:04:12;;;;;;;0.80;0.60;;;24.00;50.90;;;;;;5043679;28;20291;-59
2021/08/09 12:06:48;;;;;;;1.77;0.65;;;24.00;50.90;;;;;;5043415;28;20044;-60
2021/08/09 12:09:16;;;;;;;1.15;0.60;;;24.00;51.00;;;;;;5024471;28;20389;-58
2021/08/09 12:11:42;;;;;;;0.80;0.60;;;24.00;51.00;;;;;;5041118;28;20352;-58
2021/08/09 12:14:13;;;;;;;0.93;0.55;;;24.00;51.00;;;;;;5035233;28;20491;-55
2021/08/09 12:16:58;;;;;;;0.95;0.68;;;24.00;51.00;;;;;;5048602;28;20112;-61
2021/08/09 12:19:40;;;;;;;0.85;0.60;;;24.00;51.00;;;;;;5051876;28;20365;-60
2021/08/09 12:22:29;;;;;;;0.65;0.60;;;24.00;51.10;;;;;;5044384;28;20527;-59
2021/08/09 12:25:04;;;;;;;0.57;0.50;;;24.00;51.10;;;;;;5046037;28;20083;-58
2021/08/09 12:27:30;;;;;;;1.63;0.50;;;24.00;51.10;;;;;;5045961;28;20126;-58
2021/08/09 12:30:18;;;;;;;0.50;0.40;;;24.00;51.50;;;;;;5046121;28;20029;-60
2021/08/09 12:32:56;;;;;;;0.52;0.52;;;24.00;51.20;;;;;;5028926;28;20041;-61
2021/08/09 12:35:35;;;;;;;1.00;0.60;;;24.00;51.30;;;;;;5032990;28;20116;-61
2021/08/09 12:38:01;;;;;;;0.85;0.55;;;24.10;51.40;;;;;;5039454;28;20044;-61
2021/08/09 12:40:40;;;;;;;0.73;0.60;;;24.00;51.40;;;;;;5040369;28;20132;-58
2021/08/09 12:43:14;;;;;;;0.85;0.70;;;24.00;51.40;;;;;;5048529;28;20043;-61
2021/08/09 12:45:42;;;;;;;1.15;0.70;;;24.00;51.40;;;;;;5046633;28;20041;-62
2021/08/09 12:48:09;;;;;;;0.88;0.70;;;24.00;51.40;;;;;;5044815;28;20045;-61
2021/08/09 12:50:37;;;;;;;0.77;0.60;;;24.00;51.50;;;;;;5046933;28;20372;-62
2021/08/09 12:53:03;;;;;;;0.75;0.60;;;24.10;51.50;;;;;;5049553;28;20064;-60
2021/08/09 12:55:30;;;;;;;1.15;0.63;;;24.00;51.50;;;;;;5046748;28;20063;-63